Time;durP1;ratioP1;P1;durP2;ratioP2;P2;SDS_P1;SDS_P2;PMS_P1;PMS_P2;Temp;Humidity;BMP_temperature;BMP_pressure;BME280_temperature;BME280_humidity;BME280_pressure;Samples;Min_cycle;Max_cycle;Signal;HPM_P1;HPM_P2
2021/06/01 00:02:05;;;;;;;0.50;0.40;;;14.70;99.90;;;;;;5073394;28;20448;-79
2021/06/01 00:04:31;;;;;;;0.50;0.40;;;14.60;99.90;;;;;;5073198;28;20444;-79
2021/06/01 00:06:58;;;;;;;0.50;0.40;;;14.60;99.90;;;;;;5072738;28;20498;-79
2021/06/01 00:09:25;;;;;;;0.50;0.40;;;14.50;99.90;;;;;;5073478;28;20479;-79
2021/06/01 00:11:51;;;;;;;0.50;0.40;;;14.50;99.90;;;;;;5073947;28;20445;-78
2021/06/01 00:14:18;;;;;;;0.50;0.40;;;14.50;99.90;;;;;;5091353;28;20431;-79
2021/06/01 00:16:45;;;;;;;0.50;0.40;;;14.40;99.90;;;;;;5072235;28;20945;-79
2021/06/01 00:19:11;;;;;;;0.50;0.40;;;14.40;99.90;;;;;;5073591;28;20964;-76
2021/06/01 00:21:39;;;;;;;0.50;0.40;;;14.40;99.90;;;;;;5073046;28;20201;-79
2021/06/01 00:24:07;;;;;;;0.50;0.40;;;14.40;99.90;;;;;;5073679;28;20494;-77
2021/06/01 00:26:35;;;;;;;0.50;0.40;;;14.40;99.90;;;;;;5072910;28;20490;-79
2021/06/01 00:29:01;;;;;;;0.50;0.40;;;14.40;99.90;;;;;;5073546;28;20472;-79
2021/06/01 00:31:27;;;;;;;0.50;0.40;;;14.50;99.90;;;;;;5072864;28;20448;-78
2021/06/01 00:33:54;;;;;;;0.50;0.40;;;14.40;99.90;;;;;;5073959;28;20439;-78
2021/06/01 00:36:20;;;;;;;0.50;0.40;;;14.40;99.90;;;;;;5072787;28;20810;-77
2021/06/01 00:38:46;;;;;;;0.50;0.40;;;14.30;99.90;;;;;;5072750;28;20973;-79
2021/06/01 00:41:14;;;;;;;0.50;0.40;;;14.20;99.90;;;;;;5072780;28;20690;-78
2021/06/01 00:43:40;;;;;;;0.50;0.40;;;14.10;99.90;;;;;;5088729;28;20436;-77
2021/06/01 00:46:07;;;;;;;0.50;0.40;;;14.10;99.90;;;;;;5075910;28;20248;-76
2021/06/01 00:48:33;;;;;;;0.50;0.40;;;14.00;99.90;;;;;;5072465;28;20993;-78
2021/06/01 00:51:00;;;;;;;0.50;0.40;;;13.90;99.90;;;;;;5072858;28;20809;-78
2021/06/01 00:53:27;;;;;;;0.50;0.40;;;13.90;99.90;;;;;;5074629;28;21020;-79
2021/06/01 00:55:54;;;;;;;0.50;0.40;;;13.80;99.90;;;;;;5077563;28;20821;-77
2021/06/01 00:58:21;;;;;;;0.50;0.40;;;13.80;99.90;;;;;;5076561;28;20468;-79
2021/06/01 01:03:29;;;;;;;0.50;0.40;;;13.70;99.90;;;;;;5068187;28;20189;-79
2021/06/01 01:06:03;;;;;;;0.50;0.40;;;13.70;99.90;;;;;;5076941;28;20447;-79
2021/06/01 01:08:45;;;;;;;0.50;0.40;;;13.60;99.90;;;;;;5075671;28;21040;-78
2021/06/01 01:11:16;;;;;;;0.50;0.40;;;13.60;99.90;;;;;;5077023;28;20436;-79
2021/06/01 01:13:49;;;;;;;0.50;0.40;;;13.60;99.90;;;;;;5092509;28;20454;-78
2021/06/01 01:16:17;;;;;;;0.50;0.40;;;13.60;99.90;;;;;;5078081;28;20197;-78
2021/06/01 01:18:49;;;;;;;0.50;0.40;;;13.60;99.90;;;;;;5075654;28;20594;-80
2021/06/01 01:21:20;;;;;;;0.50;0.40;;;13.50;99.90;;;;;;5075709;28;20428;-78
2021/06/01 01:23:55;;;;;;;0.50;0.40;;;13.60;99.90;;;;;;5077586;28;20432;-78
2021/06/01 01:26:35;;;;;;;0.50;0.40;;;13.60;99.90;;;;;;5076209;28;20190;-76
2021/06/01 01:29:10;;;;;;;0.50;0.40;;;13.80;99.90;;;;;;5076351;28;20484;-78
2021/06/01 01:31:42;;;;;;;0.50;0.40;;;13.80;99.90;;;;;;5076241;28;20196;-79
2021/06/01 01:34:11;;;;;;;0.50;0.40;;;13.70;99.90;;;;;;5076380;28;20690;-79
2021/06/01 01:36:38;;;;;;;0.50;0.40;;;13.70;99.90;;;;;;5075929;28;20540;-79
2021/06/01 01:39:05;;;;;;;0.50;0.40;;;13.60;99.90;;;;;;5076163;28;20243;-79
2021/06/01 01:41:35;;;;;;;0.50;0.40;;;13.50;99.90;;;;;;5075955;28;20301;-79
2021/06/01 01:44:06;;;;;;;0.50;0.40;;;13.30;99.90;;;;;;5095111;28;20201;-79
2021/06/01 01:46:49;;;;;;;0.50;0.40;;;13.30;99.90;;;;;;5075972;28;20597;-79
2021/06/01 01:49:19;;;;;;;0.50;0.40;;;13.20;99.90;;;;;;5075801;28;20224;-79
2021/06/01 01:51:47;;;;;;;0.50;0.40;;;13.10;99.90;;;;;;5075673;28;20200;-77
2021/06/01 01:54:15;;;;;;;0.50;0.40;;;13.10;99.90;;;;;;5075416;28;20279;-78
2021/06/01 01:56:45;;;;;;;0.50;0.40;;;13.10;99.90;;;;;;5075833;28;20201;-78
2021/06/01 01:59:13;;;;;;;0.50;0.40;;;13.00;99.90;;;;;;5075357;28;20224;-77
2021/06/01 02:01:42;;;;;;;0.50;0.40;;;12.90;99.90;;;;;;5076028;28;20259;-78
2021/06/01 02:04:09;;;;;;;0.50;0.40;;;12.90;99.90;;;;;;5075326;28;20197;-79
2021/06/01 02:06:37;;;;;;;0.50;0.40;;;12.90;99.90;;;;;;5075285;28;20659;-77
2021/06/01 02:09:05;;;;;;;0.50;0.40;;;12.80;99.90;;;;;;5075720;28;20218;-79
2021/06/01 02:11:31;;;;;;;0.50;0.40;;;12.80;99.90;;;;;;5076028;28;20193;-77
2021/06/01 02:14:00;;;;;;;0.50;0.40;;;12.70;99.90;;;;;;5092766;28;20229;-78
2021/06/01 02:16:27;;;;;;;0.50;0.40;;;12.70;99.90;;;;;;5075440;28;20239;-78
2021/06/01 02:18:54;;;;;;;0.50;0.40;;;12.60;99.90;;;;;;5074830;28;20210;-79
2021/06/01 02:21:33;;;;;;;0.50;0.40;;;12.50;99.90;;;;;;5075087;28;20202;-79
2021/06/01 02:24:04;;;;;;;0.50;0.40;;;12.50;99.90;;;;;;5075692;28;20189;-78
2021/06/01 02:26:47;;;;;;;0.50;0.40;;;12.50;99.90;;;;;;5074787;28;20182;-78
2021/06/01 02:29:20;;;;;;;0.50;0.40;;;12.40;99.90;;;;;;5074425;28;20594;-75
2021/06/01 02:31:49;;;;;;;0.50;0.40;;;12.40;99.90;;;;;;5075471;28;20218;-78
2021/06/01 02:34:16;;;;;;;0.50;0.40;;;12.40;99.90;;;;;;5075560;28;20205;-78
2021/06/01 02:36:43;;;;;;;0.50;0.40;;;12.30;99.90;;;;;;5073876;28;20194;-77
2021/06/01 02:39:12;;;;;;;0.50;0.40;;;12.30;99.90;;;;;;5076721;28;20590;-78
2021/06/01 02:41:38;;;;;;;0.50;0.40;;;12.20;99.90;;;;;;5075780;28;20185;-79
2021/06/01 02:44:04;;;;;;;0.50;0.40;;;12.30;99.90;;;;;;5095035;28;20193;-79
2021/06/01 02:46:31;;;;;;;0.50;0.40;;;12.30;99.90;;;;;;5075993;28;20200;-78
2021/06/01 02:48:58;;;;;;;0.50;0.40;;;12.20;99.90;;;;;;5076108;28;20229;-78
2021/06/01 02:51:25;;;;;;;0.50;0.40;;;12.30;99.90;;;;;;5075936;28;20194;-78
2021/06/01 02:53:53;;;;;;;0.50;0.40;;;12.20;99.90;;;;;;5076416;28;20186;-77
2021/06/01 02:56:22;;;;;;;0.50;0.40;;;12.20;99.90;;;;;;5075746;28;20251;-77
2021/06/01 02:58:49;;;;;;;0.50;0.40;;;12.20;99.90;;;;;;5075779;28;20248;-79
2021/06/01 03:01:17;;;;;;;0.50;0.40;;;12.10;99.90;;;;;;5075756;28;20620;-78
2021/06/01 03:03:44;;;;;;;0.50;0.40;;;12.10;99.90;;;;;;5076200;28;20197;-78
2021/06/01 03:06:11;;;;;;;0.50;0.40;;;12.20;99.90;;;;;;5074573;28;20205;-77
2021/06/01 03:08:39;;;;;;;0.50;0.40;;;12.20;99.90;;;;;;5073905;28;20710;-78
2021/06/01 03:11:06;;;;;;;0.50;0.40;;;12.10;99.90;;;;;;5074908;28;20197;-79
2021/06/01 03:13:34;;;;;;;0.50;0.40;;;12.20;99.90;;;;;;5088202;28;20190;-78
2021/06/01 03:16:00;;;;;;;0.50;0.40;;;12.20;99.90;;;;;;5077752;28;20198;-79
2021/06/01 03:18:28;;;;;;;0.50;0.40;;;12.10;99.90;;;;;;5074180;28;20221;-78
2021/06/01 03:20:55;;;;;;;0.50;0.40;;;12.10;99.90;;;;;;5074391;28;20204;-78
2021/06/01 03:23:21;;;;;;;0.50;0.40;;;12.00;99.90;;;;;;5074236;28;20194;-76
2021/06/01 03:25:47;;;;;;;0.50;0.40;;;12.00;99.90;;;;;;5074145;28;20225;-77
2021/06/01 03:28:14;;;;;;;0.50;0.40;;;11.90;99.90;;;;;;5073966;28;20221;-77
2021/06/01 03:30:42;;;;;;;0.50;0.40;;;11.90;99.90;;;;;;5074101;28;20229;-77
2021/06/01 03:33:09;;;;;;;0.50;0.40;;;11.90;99.90;;;;;;5074301;28;20418;-77
2021/06/01 03:35:35;;;;;;;0.50;0.40;;;11.90;99.90;;;;;;5074033;28;20198;-79
2021/06/01 03:38:02;;;;;;;0.50;0.40;;;11.90;99.90;;;;;;5073988;28;20583;-77
2021/06/01 03:40:28;;;;;;;0.50;0.40;;;11.80;99.90;;;;;;5074915;28;20649;-78
2021/06/01 03:42:54;;;;;;;0.50;0.40;;;11.80;99.90;;;;;;5084526;28;20194;-79
2021/06/01 03:45:22;;;;;;;0.50;0.40;;;11.80;99.90;;;;;;5085805;28;20253;-80
2021/06/01 03:47:50;;;;;;;0.50;0.40;;;11.80;99.90;;;;;;5075239;28;20217;-79
2021/06/01 03:50:16;;;;;;;0.50;0.40;;;11.80;99.90;;;;;;5075269;28;20225;-78
2021/06/01 03:52:43;;;;;;;0.50;0.40;;;11.80;99.90;;;;;;5074863;28;20618;-80
2021/06/01 03:55:10;;;;;;;0.50;0.40;;;11.80;99.90;;;;;;5075791;28;20193;-78
2021/06/01 03:57:36;;;;;;;0.50;0.40;;;11.80;99.90;;;;;;5075610;28;20736;-79
2021/06/01 04:00:06;;;;;;;0.50;0.40;;;11.90;99.90;;;;;;5075877;28;20284;-78
2021/06/01 04:02:32;;;;;;;0.50;0.40;;;11.90;99.90;;;;;;5075803;28;20190;-79
2021/06/01 04:04:59;;;;;;;0.50;0.40;;;11.90;99.90;;;;;;5074166;28;20201;-80
2021/06/01 04:07:25;;;;;;;1.23;1.13;;;12.10;99.90;;;;;;5074495;28;20572;-77
2021/06/01 04:09:52;;;;;;;0.50;0.50;;;12.20;99.90;;;;;;5074569;28;20212;-78
2021/06/01 04:12:18;;;;;;;0.50;0.40;;;12.30;99.90;;;;;;5079290;28;20193;-78
2021/06/01 04:14:44;;;;;;;0.50;0.40;;;12.30;99.90;;;;;;5088621;28;20239;-77
2021/06/01 04:17:10;;;;;;;0.50;0.40;;;12.40;99.90;;;;;;5073720;28;20201;-79
2021/06/01 04:19:37;;;;;;;1.50;1.40;;;12.40;99.90;;;;;;5074104;28;20197;-78
2021/06/01 04:22:04;;;;;;;0.50;0.40;;;12.50;99.90;;;;;;5074575;28;20194;-77
2021/06/01 04:24:31;;;;;;;0.50;0.40;;;12.50;99.90;;;;;;5073862;28;20243;-78
2021/06/01 04:26:59;;;;;;;0.50;0.40;;;12.50;99.90;;;;;;5072801;28;20198;-78
2021/06/01 04:29:25;;;;;;;0.50;0.40;;;12.50;99.90;;;;;;5073070;28;20233;-77
2021/06/01 04:31:52;;;;;;;0.50;0.40;;;12.50;99.90;;;;;;5072755;28;20190;-79
2021/06/01 04:34:18;;;;;;;0.50;0.50;;;12.50;99.90;;;;;;5072945;28;20198;-79
2021/06/01 04:36:44;;;;;;;1.08;0.98;;;12.60;99.90;;;;;;5072807;28;20248;-79
2021/06/01 04:39:12;;;;;;;0.50;0.40;;;12.70;99.90;;;;;;5072601;28;20279;-79
2021/06/01 04:41:39;;;;;;;0.50;0.40;;;12.70;99.90;;;;;;5072788;28;20198;-79
2021/06/01 04:44:06;;;;;;;0.50;0.40;;;12.70;99.90;;;;;;5091838;28;20608;-79
2021/06/01 04:46:33;;;;;;;2.35;2.25;;;12.80;99.90;;;;;;5072958;28;20244;-78
2021/06/01 04:48:59;;;;;;;0.50;0.40;;;12.80;99.90;;;;;;5072074;28;20219;-79
2021/06/01 04:51:25;;;;;;;0.95;0.95;;;12.90;99.90;;;;;;5070494;28;20236;-78
2021/06/01 04:53:53;;;;;;;0.88;0.88;;;12.90;99.90;;;;;;5071160;28;20201;-79
2021/06/01 04:56:22;;;;;;;0.50;0.40;;;13.00;99.90;;;;;;5072265;28;20206;-80
2021/06/01 04:58:49;;;;;;;0.85;0.85;;;13.00;99.90;;;;;;5073023;28;20221;-79
2021/06/01 05:01:15;;;;;;;0.50;0.40;;;13.10;99.90;;;;;;5072987;28;20197;-79
2021/06/01 05:03:41;;;;;;;0.50;0.40;;;13.10;99.90;;;;;;5073187;28;20202;-77
2021/06/01 05:06:09;;;;;;;0.50;0.40;;;13.20;99.90;;;;;;5072414;28;20865;-79
2021/06/01 05:08:36;;;;;;;0.50;0.40;;;13.30;99.90;;;;;;5072357;28;20241;-79
2021/06/01 05:11:04;;;;;;;0.50;0.40;;;13.30;99.90;;;;;;5073004;28;20213;-77
2021/06/01 05:13:31;;;;;;;0.50;0.40;;;13.40;99.90;;;;;;5087208;28;20192;-78
2021/06/01 05:15:58;;;;;;;0.50;0.40;;;13.50;99.90;;;;;;5076998;28;20200;-79
2021/06/01 05:18:24;;;;;;;6.68;3.45;;;13.60;99.90;;;;;;5071685;28;20242;-77
2021/06/01 05:20:51;;;;;;;0.50;0.40;;;13.70;99.90;;;;;;5072228;28;20194;-80
2021/06/01 05:23:17;;;;;;;0.50;0.40;;;13.80;99.90;;;;;;5072865;28;20202;-79
2021/06/01 05:25:44;;;;;;;0.50;0.40;;;13.90;99.90;;;;;;5072859;28;20198;-80
2021/06/01 05:28:11;;;;;;;0.50;0.40;;;14.00;99.90;;;;;;5072071;28;20226;-79
2021/06/01 05:30:44;;;;;;;0.50;0.40;;;14.10;99.90;;;;;;5072351;28;20228;-78
2021/06/01 05:33:19;;;;;;;0.50;0.40;;;14.30;99.90;;;;;;5072113;28;20214;-79
2021/06/01 05:35:51;;;;;;;0.53;0.47;;;14.40;99.90;;;;;;5072066;28;20270;-79
2021/06/01 05:38:17;;;;;;;0.55;0.52;;;14.40;99.90;;;;;;5072390;28;20452;-79
2021/06/01 05:40:43;;;;;;;0.50;0.40;;;14.40;99.90;;;;;;5076121;28;20190;-78
2021/06/01 05:43:10;;;;;;;0.50;0.40;;;14.50;99.90;;;;;;5087418;28;20465;-80
2021/06/01 05:45:37;;;;;;;1.07;1.07;;;14.60;99.90;;;;;;5082713;28;20182;-79
2021/06/01 05:48:07;;;;;;;0.50;0.40;;;14.80;99.90;;;;;;5075271;28;20464;-80
2021/06/01 05:50:33;;;;;;;0.50;0.40;;;14.90;99.90;;;;;;5075557;28;20479;-80
2021/06/01 05:53:00;;;;;;;0.50;0.40;;;15.10;99.90;;;;;;5075186;28;20444;-78
2021/06/01 05:55:27;;;;;;;0.50;0.40;;;15.20;99.90;;;;;;5075489;28;20444;-79
2021/06/01 05:57:54;;;;;;;0.50;0.40;;;15.40;99.90;;;;;;5074941;28;20467;-79
2021/06/01 06:00:22;;;;;;;1.60;1.50;;;15.60;99.90;;;;;;5075898;28;20437;-80
2021/06/01 06:02:48;;;;;;;1.07;1.07;;;15.80;99.90;;;;;;5075299;28;20437;-77
2021/06/01 06:05:16;;;;;;;0.50;0.40;;;15.90;99.90;;;;;;5074620;28;20806;-78
2021/06/01 06:07:42;;;;;;;0.50;0.40;;;16.20;99.90;;;;;;5073354;28;20989;-78
2021/06/01 06:10:10;;;;;;;0.50;0.40;;;16.40;99.90;;;;;;5074093;28;20473;-78
2021/06/01 06:12:36;;;;;;;0.50;0.40;;;16.70;99.90;;;;;;5081483;28;21178;-77
2021/06/01 06:15:04;;;;;;;0.50;0.47;;;17.10;99.90;;;;;;5084282;28;20488;-80
2021/06/01 06:17:34;;;;;;;0.50;0.40;;;17.90;99.90;;;;;;5074314;28;20429;-77
2021/06/01 06:20:01;;;;;;;0.50;0.40;;;18.70;99.90;;;;;;5084974;28;20430;-77
2021/06/01 06:22:29;;;;;;;0.50;0.30;;;19.50;99.90;;;;;;5094860;28;20782;-77
2021/06/01 06:24:55;;;;;;;0.50;0.30;;;19.80;99.90;;;;;;5078628;28;20513;-79
2021/06/01 06:27:21;;;;;;;0.50;0.50;;;19.20;99.90;;;;;;5074375;28;20436;-78
2021/06/01 06:29:48;;;;;;;0.50;0.40;;;19.20;99.90;;;;;;5075479;28;20795;-78
2021/06/01 06:32:14;;;;;;;0.50;0.40;;;19.20;99.90;;;;;;5078408;28;20936;-78
2021/06/01 06:34:41;;;;;;;0.50;0.30;;;19.30;99.90;;;;;;5074565;28;20927;-77
2021/06/01 06:37:07;;;;;;;0.50;0.30;;;19.40;99.90;;;;;;5073296;28;20950;-76
2021/06/01 06:39:35;;;;;;;0.50;0.30;;;19.50;99.90;;;;;;5073727;28;20513;-78
2021/06/01 06:42:02;;;;;;;0.50;0.30;;;19.60;99.90;;;;;;5076486;28;20444;-77
2021/06/01 06:44:28;;;;;;;0.50;0.30;;;20.10;99.90;;;;;;5086424;28;20451;-78
2021/06/01 06:47:06;;;;;;;0.50;0.30;;;20.80;99.90;;;;;;5095059;28;20816;-79
2021/06/01 06:49:33;;;;;;;3.47;2.10;;;21.10;99.90;;;;;;5094518;28;20556;-78
2021/06/01 06:52:00;;;;;;;0.70;0.60;;;20.60;99.90;;;;;;5079609;28;20844;-79
2021/06/01 06:54:26;;;;;;;1.03;0.93;;;20.70;99.90;;;;;;5087797;28;20432;-77
2021/06/01 06:56:53;;;;;;;0.50;0.30;;;21.90;99.90;;;;;;5092517;28;20436;-79
2021/06/01 06:59:20;;;;;;;0.50;0.30;;;23.30;99.90;;;;;;5091751;28;20467;-78
2021/06/01 07:01:46;;;;;;;0.50;0.40;;;24.20;99.90;;;;;;5091781;28;20424;-78
2021/06/01 07:04:12;;;;;;;0.50;0.30;;;24.00;99.00;;;;;;5092131;28;21080;-79
2021/06/01 07:06:39;;;;;;;0.50;0.40;;;23.80;99.90;;;;;;5092027;28;20817;-79
2021/06/01 07:09:06;;;;;;;0.50;0.40;;;23.80;99.90;;;;;;5091619;28;20469;-79
2021/06/01 07:11:33;;;;;;;0.50;0.30;;;23.30;98.80;;;;;;5092467;28;20444;-78
2021/06/01 07:14:07;;;;;;;0.50;0.30;;;22.70;99.50;;;;;;5094464;28;20797;-77
2021/06/01 07:16:33;;;;;;;0.50;0.40;;;22.70;99.90;;;;;;5073514;28;20421;-75
2021/06/01 07:19:00;;;;;;;0.50;0.30;;;22.90;99.90;;;;;;5073764;28;20464;-77
2021/06/01 07:21:26;;;;;;;0.50;0.40;;;22.90;99.90;;;;;;5073742;28;20479;-77
2021/06/01 07:23:52;;;;;;;0.50;0.40;;;23.00;99.90;;;;;;5074816;28;20451;-80
2021/06/01 07:26:19;;;;;;;0.50;0.30;;;23.10;99.90;;;;;;5073950;28;20480;-77
2021/06/01 07:28:45;;;;;;;0.50;0.30;;;23.10;99.90;;;;;;5073397;28;20458;-77
2021/06/01 07:31:14;;;;;;;0.50;0.30;;;23.20;99.90;;;;;;5072948;28;20479;-79
2021/06/01 07:33:41;;;;;;;0.50;0.30;;;23.10;99.90;;;;;;5073227;28;20436;-79
2021/06/01 07:36:08;;;;;;;0.50;0.40;;;23.10;99.90;;;;;;5073814;28;20493;-79
2021/06/01 07:38:35;;;;;;;0.50;0.30;;;23.10;99.90;;;;;;5072800;28;20444;-75
2021/06/01 07:41:02;;;;;;;0.50;0.30;;;23.20;99.90;;;;;;5073641;28;20440;-79
2021/06/01 07:43:28;;;;;;;0.50;0.30;;;23.20;99.90;;;;;;5087456;28;20440;-77
2021/06/01 07:45:55;;;;;;;0.50;0.30;;;23.20;99.90;;;;;;5077506;28;20432;-79
2021/06/01 07:48:23;;;;;;;0.50;0.40;;;23.10;98.40;;;;;;5072406;28;20460;-78
2021/06/01 07:50:50;;;;;;;1.03;0.50;;;22.90;99.90;;;;;;5072845;28;20487;-78
2021/06/01 07:53:16;;;;;;;0.50;0.30;;;22.80;99.10;;;;;;5072677;28;20453;-77
2021/06/01 07:55:43;;;;;;;0.50;0.30;;;22.40;99.20;;;;;;5071922;28;20444;-79
2021/06/01 07:58:10;;;;;;;0.50;0.30;;;22.50;99.90;;;;;;5072454;28;20479;-79
2021/06/01 08:00:36;;;;;;;0.50;0.30;;;22.50;99.90;;;;;;5073184;28;20519;-77
2021/06/01 08:03:03;;;;;;;0.50;0.30;;;22.70;99.90;;;;;;5073068;28;20488;-77
2021/06/01 08:05:30;;;;;;;0.50;0.30;;;23.00;98.90;;;;;;5072929;28;20436;-78
2021/06/01 08:07:57;;;;;;;0.50;0.30;;;23.10;99.90;;;;;;5071915;28;20470;-77
2021/06/01 08:10:23;;;;;;;0.50;0.33;;;23.30;99.90;;;;;;5072670;28;20486;-77
2021/06/01 08:12:50;;;;;;;0.50;0.30;;;23.50;99.90;;;;;;5081796;28;20439;-78
2021/06/01 08:15:20;;;;;;;0.50;0.30;;;23.80;98.40;;;;;;5082393;28;20437;-77
2021/06/01 08:17:46;;;;;;;0.50;0.30;;;23.90;93.30;;;;;;5071285;28;21152;-79
2021/06/01 08:20:14;;;;;;;0.50;0.30;;;23.80;94.00;;;;;;5072344;28;20432;-78
2021/06/01 08:22:43;;;;;;;0.50;0.30;;;24.10;93.40;;;;;;5071525;28;20482;-79
2021/06/01 08:25:11;;;;;;;0.50;0.30;;;24.10;91.50;;;;;;5072608;28;20535;-78
2021/06/01 08:27:37;;;;;;;0.50;0.30;;;23.90;85.80;;;;;;5071300;28;20996;-79
2021/06/01 08:30:06;;;;;;;0.50;0.30;;;23.70;84.70;;;;;;5072617;28;20514;-79
2021/06/01 08:32:32;;;;;;;0.50;0.30;;;23.70;86.90;;;;;;5072336;28;20445;-77
2021/06/01 08:34:58;;;;;;;0.50;0.30;;;23.80;90.90;;;;;;5072546;28;20446;-77
2021/06/01 08:37:24;;;;;;;0.50;0.30;;;23.90;91.90;;;;;;5071183;28;20451;-77
2021/06/01 08:39:52;;;;;;;0.63;0.63;;;24.10;90.40;;;;;;5072408;28;20447;-78
2021/06/01 08:42:18;;;;;;;0.50;0.30;;;24.70;87.60;;;;;;5076815;28;20453;-78
2021/06/01 08:44:48;;;;;;;0.50;0.30;;;25.70;89.00;;;;;;5086757;28;20437;-79
2021/06/01 08:47:17;;;;;;;0.50;0.30;;;26.90;83.60;;;;;;5072088;28;20474;-76
2021/06/01 08:49:45;;;;;;;0.50;0.30;;;28.30;75.90;;;;;;5072452;28;20837;-78
2021/06/01 08:52:11;;;;;;;0.50;0.30;;;28.40;67.00;;;;;;5071679;28;20444;-77
2021/06/01 08:54:37;;;;;;;0.50;0.30;;;28.20;69.70;;;;;;5072768;28;20465;-79
2021/06/01 08:57:07;;;;;;;0.50;0.30;;;27.80;63.20;;;;;;5072703;28;20805;-77
2021/06/01 08:59:34;;;;;;;0.50;0.30;;;27.40;65.20;;;;;;5072130;28;20468;-78
2021/06/01 09:02:01;;;;;;;0.60;0.50;;;26.90;64.00;;;;;;5072622;28;20448;-77
2021/06/01 09:04:43;;;;;;;0.50;0.30;;;26.70;65.60;;;;;;5071581;28;20531;-78
2021/06/01 09:07:13;;;;;;;0.50;0.30;;;26.60;68.40;;;;;;5071334;28;20448;-79
2021/06/01 09:09:46;;;;;;;0.50;0.30;;;26.00;65.70;;;;;;5071926;28;20459;-78
2021/06/01 09:12:27;;;;;;;0.60;0.50;;;25.20;64.20;;;;;;5075354;28;20444;-79
2021/06/01 09:15:19;;;;;;;0.50;0.40;;;24.70;64.60;;;;;;5087140;28;20432;-77
2021/06/01 09:23:15;;;;;;;0.50;0.30;;;25.60;65.60;;;;;;5075696;28;20469;-77
2021/06/01 09:25:44;;;;;;;0.50;0.30;;;25.60;65.50;;;;;;5075897;28;20959;-78
2021/06/01 09:28:12;;;;;;;0.50;0.30;;;25.50;64.70;;;;;;5074918;28;20458;-79
2021/06/01 09:30:41;;;;;;;1.53;0.60;;;25.00;65.90;;;;;;5075134;28;20471;-79
2021/06/01 09:33:09;;;;;;;0.60;0.50;;;24.60;64.50;;;;;;5075287;28;20551;-78
2021/06/01 09:35:49;;;;;;;0.50;0.30;;;24.00;64.30;;;;;;5074552;28;21003;-77
2021/06/01 09:38:17;;;;;;;0.50;0.30;;;23.70;67.00;;;;;;5074774;28;20516;-77
2021/06/01 09:40:44;;;;;;;0.50;0.30;;;23.80;68.60;;;;;;5075075;28;20933;-77
2021/06/01 09:43:13;;;;;;;0.50;0.30;;;23.80;67.70;;;;;;5086886;28;20432;-79
2021/06/01 09:45:40;;;;;;;0.77;0.40;;;23.90;66.00;;;;;;5081356;28;20530;-79
2021/06/01 09:48:08;;;;;;;0.50;0.30;;;24.10;65.00;;;;;;5075355;28;20468;-78
2021/06/01 09:50:40;;;;;;;0.50;0.33;;;24.20;65.80;;;;;;5075120;28;20480;-78
2021/06/01 09:53:09;;;;;;;0.50;0.30;;;24.40;66.90;;;;;;5075275;28;20427;-78
2021/06/01 09:55:42;;;;;;;0.50;0.30;;;24.70;64.20;;;;;;5075631;28;20442;-78
2021/06/01 09:58:10;;;;;;;0.50;0.33;;;25.00;64.80;;;;;;5073948;28;20476;-77
2021/06/01 10:00:40;;;;;;;0.60;0.60;;;25.10;63.60;;;;;;5074610;28;20452;-78
2021/06/01 10:03:15;;;;;;;0.50;0.30;;;25.20;63.60;;;;;;5075143;28;20456;-77
2021/06/01 10:05:41;;;;;;;0.50;0.30;;;25.10;66.40;;;;;;5075033;28;20431;-79
2021/06/01 10:08:13;;;;;;;0.60;0.50;;;25.30;62.60;;;;;;5074638;28;20460;-78
2021/06/01 10:10:41;;;;;;;0.87;0.87;;;25.40;63.40;;;;;;5074759;28;20498;-79
2021/06/01 10:13:09;;;;;;;0.60;0.60;;;25.10;62.90;;;;;;5085523;28;20450;-77
2021/06/01 10:15:37;;;;;;;0.50;0.40;;;24.80;62.70;;;;;;5082248;28;20805;-78
2021/06/01 10:18:06;;;;;;;0.87;0.87;;;24.50;62.70;;;;;;5073834;28;20466;-79
2021/06/01 10:20:35;;;;;;;0.50;0.30;;;24.80;62.20;;;;;;5074943;28;20440;-79
2021/06/01 10:23:02;;;;;;;0.50;0.30;;;25.00;63.60;;;;;;5074418;28;20437;-78
2021/06/01 10:25:29;;;;;;;0.50;0.30;;;25.30;63.50;;;;;;5073416;28;20809;-78
2021/06/01 10:27:59;;;;;;;0.50;0.40;;;25.70;65.10;;;;;;5074036;28;20456;-79
2021/06/01 10:30:26;;;;;;;0.50;0.30;;;25.60;59.60;;;;;;5074612;28;20475;-78
2021/06/01 10:32:57;;;;;;;0.70;0.70;;;25.40;61.80;;;;;;5074419;28;20808;-79
2021/06/01 10:35:26;;;;;;;0.50;0.30;;;25.10;61.20;;;;;;5074131;28;20450;-78
2021/06/01 10:44:19;;;;;;;0.50;0.30;;;24.90;59.40;;;;;;5089094;28;20434;-79
2021/06/01 10:52:25;;;;;;;0.50;0.30;;;25.00;59.40;;;;;;5073926;28;20848;-78
2021/06/01 10:55:06;;;;;;;0.50;0.30;;;25.40;59.90;;;;;;5075034;28;20493;-80
2021/06/01 10:57:57;;;;;;;0.63;0.50;;;25.80;64.20;;;;;;5073743;28;20865;-78
2021/06/01 11:03:15;;;;;;;0.57;0.47;;;24.70;59.40;;;;;;5073535;28;20770;-78
2021/06/01 11:06:09;;;;;;;0.50;0.30;;;24.90;61.30;;;;;;5073787;28;20444;-78
2021/06/01 11:08:38;;;;;;;0.50;0.30;;;25.10;59.40;;;;;;5072887;28;20468;-78
2021/06/01 11:11:26;;;;;;;0.50;0.30;;;25.20;60.90;;;;;;5073470;28;20885;-78
2021/06/01 11:13:54;;;;;;;0.70;0.70;;;25.30;60.50;;;;;;5090908;28;20466;-78
2021/06/01 11:16:20;;;;;;;0.50;0.50;;;25.40;57.90;;;;;;5079670;28;20440;-76
2021/06/01 11:18:55;;;;;;;0.50;0.30;;;25.60;58.60;;;;;;5072979;28;20539;-78
2021/06/01 11:21:36;;;;;;;0.80;0.50;;;25.60;56.70;;;;;;5074075;28;20435;-75
2021/06/01 11:33:02;;;;;;;0.50;0.30;;;25.30;58.50;;;;;;5073773;28;21027;-77
2021/06/01 11:35:31;;;;;;;0.50;0.30;;;25.30;58.80;;;;;;5072551;28;20895;-78
2021/06/01 11:38:05;;;;;;;0.50;0.30;;;25.80;58.20;;;;;;5071882;28;20463;-78
2021/06/01 11:40:37;;;;;;;0.50;0.40;;;26.30;59.60;;;;;;5072835;28;20560;-77
2021/06/01 11:43:08;;;;;;;0.67;0.57;;;26.50;58.00;;;;;;5082831;28;20446;-78
2021/06/01 11:45:48;;;;;;;0.50;0.30;;;26.90;59.20;;;;;;5080063;28;20432;-78
2021/06/01 11:48:28;;;;;;;0.57;0.47;;;28.20;58.70;;;;;;5072160;28;20468;-78
2021/06/01 11:51:12;;;;;;;1.47;1.37;;;28.50;53.70;;;;;;5072611;28;20545;-78
2021/06/01 11:53:54;;;;;;;0.50;0.50;;;27.30;53.60;;;;;;5072017;28;20490;-76
2021/06/01 11:56:41;;;;;;;0.50;0.30;;;26.80;54.20;;;;;;5072576;28;20444;-76
2021/06/01 12:18:53;;;;;;;0.50;0.30;;;27.30;55.80;;;;;;5071837;28;20459;-76
2021/06/01 12:21:21;;;;;;;0.60;0.50;;;28.60;55.50;;;;;;5072600;28;21056;-75
2021/06/01 12:23:50;;;;;;;0.60;0.60;;;30.00;54.10;;;;;;5072983;28;20852;-77
2021/06/01 12:26:22;;;;;;;0.60;0.60;;;29.80;52.00;;;;;;5071450;28;20440;-78
2021/06/01 12:32:00;;;;;;;0.50;0.30;;;29.80;53.50;;;;;;5071876;28;20454;-78
2021/06/01 12:34:34;;;;;;;0.50;0.30;;;31.30;51.40;;;;;;5071552;28;20481;-76
2021/06/01 12:45:38;;;;;;;0.50;0.30;;;29.40;49.10;;;;;;5080350;28;20967;-77
2021/06/01 13:08:24;;;;;;;0.50;0.30;;;31.00;49.10;;;;;;5071465;28;20459;-78
2021/06/01 13:14:03;;;;;;;0.50;0.30;;;32.50;48.00;;;;;;5086794;28;20423;-79
2021/06/01 13:19:28;;;;;;;1.77;1.20;;;31.10;49.40;;;;;;5071411;28;20861;-76
2021/06/01 13:21:59;;;;;;;0.50;0.30;;;29.70;50.70;;;;;;5071235;28;20412;-78
2021/06/01 13:30:38;;;;;;;1.87;0.83;;;31.00;52.10;;;;;;5071633;28;20471;-80
2021/06/01 13:38:41;;;;;;;1.07;1.07;;;33.60;47.70;;;;;;5070379;28;20439;-78
2021/06/01 13:46:45;;;;;;;0.60;0.60;;;30.90;49.20;;;;;;5070644;28;20488;-78
2021/06/01 13:49:17;;;;;;;0.50;0.30;;;30.20;49.90;;;;;;5070883;28;20467;-79
2021/06/01 13:52:08;;;;;;;0.50;0.50;;;31.30;50.70;;;;;;5070986;28;20476;-79
2021/06/01 13:57:25;;;;;;;0.50;0.40;;;30.30;50.90;;;;;;5070308;28;20897;-78
2021/06/01 14:00:01;;;;;;;0.70;0.70;;;31.50;50.30;;;;;;5071832;28;20502;-79
2021/06/01 14:02:42;;;;;;;0.47;0.30;;;31.80;48.40;;;;;;5074604;28;20428;-77
2021/06/01 14:21:57;;;;;;;0.87;0.87;;;29.10;52.50;;;;;;5073853;28;20423;-78
2021/06/01 14:30:13;;;;;;;33.10;1.23;;;28.40;53.90;;;;;;5036989;28;20452;-79
2021/06/01 14:38:24;;;;;;;0.50;0.30;;;29.80;53.80;;;;;;5072950;28;20439;-78
2021/06/01 15:23:14;;;;;;;2.20;2.00;;;30.50;49.20;;;;;;5072394;28;20490;-79
2021/06/01 15:47:58;;;;;;;0.70;0.70;;;27.70;51.00;;;;;;5074852;28;20550;-79
2021/06/01 15:50:31;;;;;;;0.60;0.60;;;27.30;51.90;;;;;;5092825;28;20482;-79
2021/06/01 16:13:26;;;;;;;2.81;1.33;;;26.00;52.80;;;;;;4993582;28;10000671;-80
2021/06/01 16:21:34;;;;;;;0.50;0.40;;;26.00;53.10;;;;;;5078921;28;21295;-78
2021/06/01 16:43:42;;;;;;;0.50;0.43;;;25.40;53.80;;;;;;5091698;28;20422;-81
2021/06/01 17:05:40;;;;;;;1.93;0.60;;;25.20;54.50;;;;;;5091236;28;20435;-82
2021/06/01 17:08:31;;;;;;;1.63;0.90;;;25.10;54.10;;;;;;5092693;28;20471;-82
2021/06/01 17:11:13;;;;;;;1.20;1.07;;;25.00;55.00;;;;;;5092040;28;20486;-81
2021/06/01 17:13:42;;;;;;;0.50;0.30;;;24.90;55.00;;;;;;5092340;28;20458;-79
2021/06/01 17:16:14;;;;;;;1.80;0.50;;;25.00;56.60;;;;;;5084060;28;20429;-81
2021/06/01 17:35:14;;;;;;;0.50;0.40;;;24.50;57.00;;;;;;5068504;28;20506;-78
2021/06/01 17:37:40;;;;;;;0.50;0.30;;;24.40;56.30;;;;;;5096621;28;20805;-80
2021/06/01 17:40:11;;;;;;;0.50;0.30;;;24.40;56.90;;;;;;5097614;28;20782;-81